Metar - Info de Aeroporto     EHAM Amsterdam Airport Schiphol
Temperatura
21°C Temperatura
16°C Ptº Orvalho
73% Humidade



Vento
10 KM/H
6 MPH
3 M/S
5 NÓS



70°
LNL
Condições Atuais

Limpo Limpo
Pressão 1016.92 (hPa) - 30.03 (inHg)
Visibilidade 6.2 (milha) - 10 (km)
Aeroporto
Código-Aeropoto EHAM

Localização: Amsterdam Airport Schiphol
Distância: 25 (km)

Metar:
EHAM 122255Z 07005KT CAVOK 21/16 Q1017 NOSIG

Hora: 13-08-2022 00:55 CEST